createdAt,value
2023-10-11T00:00:29.352Z,97980.16
2023-10-11T00:03:29.639Z,97981.63
2023-10-11T00:05:57.576Z,97968.84
2023-10-11T00:08:27.289Z,97980.00
2023-10-11T00:10:56.281Z,97976.88
2023-10-11T00:13:24.227Z,97993.16
2023-10-11T00:15:53.671Z,97986.78
2023-10-11T00:18:22.964Z,97999.53
2023-10-11T00:20:53.647Z,98001.63
2023-10-11T00:23:23.183Z,98007.97
2023-10-11T00:26:01.799Z,98023.03
2023-10-11T00:28:32.944Z,98004.09
2023-10-11T00:31:01.883Z,98004.91
2023-10-11T00:33:38.930Z,98011.91
2023-10-11T00:36:07.919Z,97998.38
2023-10-11T00:38:45.075Z,98000.44
2023-10-11T00:41:19.183Z,98003.69
2023-10-11T00:43:52.806Z,98016.06
2023-10-11T00:46:20.721Z,98016.72
2023-10-11T00:49:05.398Z,98025.53
2023-10-11T00:51:33.076Z,98014.03
2023-10-11T00:54:06.261Z,98043.22
2023-10-11T00:56:34.005Z,98053.97
2023-10-11T00:59:02.279Z,98027.66
2023-10-11T01:01:28.916Z,98034.66
2023-10-11T01:03:56.472Z,98032.56
2023-10-11T01:06:26.987Z,98041.06
2023-10-11T01:08:55.286Z,98062.84
2023-10-11T01:11:23.492Z,98088.16
2023-10-11T01:13:52.624Z,98071.53
2023-10-11T01:16:30.089Z,98088.59
2023-10-11T01:18:56.573Z,98077.53
2023-10-11T01:21:23.074Z,98077.31
2023-10-11T01:23:49.764Z,98082.06
2023-10-11T01:26:16.294Z,98069.09
2023-10-11T01:28:49.593Z,98074.66
2023-10-11T01:31:18.539Z,98107.53
2023-10-11T01:33:53.784Z,98105.09
2023-10-11T01:36:23.103Z,98091.97
2023-10-11T01:38:50.563Z,98081.69
2023-10-11T01:41:23.728Z,98089.06
2023-10-11T01:43:51.661Z,98094.00
2023-10-11T01:46:26.041Z,98082.50
2023-10-11T01:48:53.688Z,98071.81
2023-10-11T01:51:29.112Z,98093.63
2023-10-11T01:54:02.690Z,98099.38
2023-10-11T01:56:29.385Z,98093.22
2023-10-11T01:59:01.881Z,98113.16
2023-10-11T02:01:31.752Z,98112.91
2023-10-11T02:04:01.650Z,98082.47
2023-10-11T02:06:33.589Z,98068.09
2023-10-11T02:09:00.852Z,98074.66
2023-10-11T02:11:30.800Z,98073.03
2023-10-11T02:13:58.962Z,98087.88
2023-10-11T02:16:33.423Z,98092.63
2023-10-11T02:19:00.513Z,98115.47
2023-10-11T02:21:30.773Z,98117.91
2023-10-11T02:24:00.179Z,98115.63
2023-10-11T02:26:35.468Z,98130.66
2023-10-11T02:29:04.374Z,98129.22
2023-10-11T02:31:34.940Z,98124.50
2023-10-11T02:34:14.818Z,98120.41
2023-10-11T02:36:45.216Z,98171.03
2023-10-11T02:39:22.101Z,98150.88
2023-10-11T02:41:59.173Z,98134.59
2023-10-11T02:44:28.896Z,98146.16
2023-10-11T02:46:55.558Z,98145.50
2023-10-11T02:49:22.430Z,98162.81
2023-10-11T02:51:54.781Z,98155.00
2023-10-11T02:54:22.322Z,98162.81
2023-10-11T02:56:49.182Z,98159.34
2023-10-11T02:59:26.191Z,98173.53
2023-10-11T03:02:05.373Z,98158.69
2023-10-11T03:04:36.659Z,98137.09
2023-10-11T03:07:03.697Z,98171.25
2023-10-11T03:09:31.584Z,98180.72
2023-10-11T03:11:58.350Z,98171.88
2023-10-11T03:14:26.353Z,98168.16
2023-10-11T03:17:06.849Z,98167.34
2023-10-11T03:19:36.067Z,98157.25
2023-10-11T03:22:03.494Z,98153.78
2023-10-11T03:24:34.478Z,98168.38
2023-10-11T03:27:02.245Z,98167.16
2023-10-11T03:29:31.424Z,98189.38
2023-10-11T03:31:58.585Z,98173.94
2023-10-11T03:34:25.027Z,98134.41
2023-10-11T03:36:52.665Z,98143.69
2023-10-11T03:39:29.874Z,98135.66
2023-10-11T03:42:08.733Z,98173.94
2023-10-11T03:44:41.535Z,98161.38
2023-10-11T03:47:28.060Z,98113.44
2023-10-11T03:49:54.892Z,98156.03
2023-10-11T03:52:21.751Z,98119.22
2023-10-11T03:54:48.541Z,98089.56
2023-10-11T03:57:18.582Z,98126.81
2023-10-11T03:59:49.584Z,98103.16
2023-10-11T04:02:18.606Z,98113.88
2023-10-11T04:04:50.138Z,98104.38
2023-10-11T04:07:24.028Z,98092.88
2023-10-11T04:09:50.915Z,98100.69
2023-10-11T04:12:17.420Z,98079.69
2023-10-11T04:14:45.909Z,98107.88
2023-10-11T04:17:24.483Z,98082.97
2023-10-11T04:19:56.309Z,98106.47
2023-10-11T04:22:25.351Z,98102.34
2023-10-11T04:24:54.404Z,98113.44
2023-10-11T04:27:23.090Z,98091.66
2023-10-11T04:29:51.645Z,98082.75
2023-10-11T04:32:40.556Z,98113.03
2023-10-11T04:35:20.139Z,98136.09
2023-10-11T04:37:53.836Z,98137.31
2023-10-11T04:40:35.564Z,98151.72
2023-10-11T04:43:20.879Z,98111.16
2023-10-11T04:48:30.999Z,98153.16
2023-10-11T04:51:17.838Z,98169.41
2023-10-11T04:53:59.102Z,98169.81
2023-10-11T04:56:46.329Z,98176.81
2023-10-11T04:59:19.376Z,98170.00
2023-10-11T05:01:49.054Z,98174.34
2023-10-11T05:04:17.625Z,98161.94
2023-10-11T05:06:45.588Z,98190.41
2023-10-11T05:09:15.469Z,98189.19
2023-10-11T05:11:45.665Z,98160.72
2023-10-11T05:14:29.947Z,98109.72
2023-10-11T05:17:17.691Z,98134.78
2023-10-11T05:20:05.355Z,98132.31
2023-10-11T05:22:42.301Z,98102.09
2023-10-11T05:25:13.082Z,98055.81
2023-10-11T05:27:49.513Z,98007.06
2023-10-11T05:30:33.671Z,97997.44
2023-10-11T05:33:03.274Z,98025.97
2023-10-11T05:35:54.723Z,98000.31
2023-10-11T05:38:39.613Z,97930.63
2023-10-11T05:41:31.679Z,97934.09
2023-10-11T05:44:17.710Z,97964.34
2023-10-11T05:47:02.972Z,97978.91
2023-10-11T05:49:49.989Z,97998.66
2023-10-11T05:52:17.169Z,98016.72
2023-10-11T05:54:44.657Z,98015.09
2023-10-11T05:57:14.693Z,98009.13
2023-10-11T05:59:43.764Z,98040.59
2023-10-11T06:02:16.200Z,98003.19
2023-10-11T06:04:43.627Z,98037.31
2023-10-11T06:07:22.212Z,98056.22
2023-10-11T06:10:07.468Z,98085.44
2023-10-11T06:12:35.028Z,98103.72
2023-10-11T06:15:07.449Z,98073.09
2023-10-11T06:17:43.364Z,98084.84
2023-10-11T06:20:29.101Z,98131.09
2023-10-11T06:22:56.974Z,98109.31
2023-10-11T06:25:44.644Z,98114.25
2023-10-11T06:28:14.765Z,98153.31
2023-10-11T06:30:43.874Z,98159.06
2023-10-11T06:33:13.972Z,98185.00
2023-10-11T06:35:50.592Z,98173.69
2023-10-11T06:38:17.482Z,98178.41
2023-10-11T06:41:16.000Z,98205.59
2023-10-11T06:43:42.465Z,98201.88
2023-10-11T06:46:08.996Z,98214.25
2023-10-11T06:48:35.588Z,98193.44
2023-10-11T06:51:02.232Z,98210.75
2023-10-11T06:53:29.637Z,98248.03
2023-10-11T06:56:00.201Z,98266.78
2023-10-11T06:58:27.929Z,98283.88
2023-10-11T07:00:55.065Z,98299.13
2023-10-11T07:03:21.854Z,98304.50
2023-10-11T07:05:51.120Z,98337.03
2023-10-11T07:08:21.242Z,98360.16
2023-10-11T07:11:04.682Z,98380.34
2023-10-11T07:13:50.627Z,98396.00
2023-10-11T07:16:21.168Z,98383.66
2023-10-11T07:18:48.552Z,98420.28
2023-10-11T07:21:17.942Z,98388.13
2023-10-11T07:23:50.176Z,98394.94
2023-10-11T07:26:37.664Z,98407.09
2023-10-11T07:29:04.140Z,98419.09
2023-10-11T07:31:36.774Z,98462.41
2023-10-11T07:34:09.474Z,98578.22
2023-10-11T07:36:40.683Z,98674.09
2023-10-11T07:39:21.520Z,98661.31
2023-10-11T07:41:49.754Z,98724.78
2023-10-11T07:44:20.828Z,98752.13
2023-10-11T07:46:50.834Z,98703.44
2023-10-11T07:49:24.157Z,98757.34
2023-10-11T07:51:59.879Z,98756.19
2023-10-11T07:54:27.842Z,98767.06
2023-10-11T07:56:59.437Z,98779.22
2023-10-11T07:59:32.017Z,98787.53
2023-10-11T08:02:00.906Z,98793.63
2023-10-11T08:04:30.720Z,98771.56
2023-10-11T08:07:02.351Z,98761.97
2023-10-11T08:09:35.751Z,98804.88
2023-10-11T08:12:09.245Z,98830.97
2023-10-11T08:14:41.197Z,98843.72
2023-10-11T08:17:11.682Z,98877.56
2023-10-11T08:19:38.992Z,98882.31
2023-10-11T08:22:11.458Z,98875.22
2023-10-11T08:24:47.351Z,98881.09
2023-10-11T08:27:15.251Z,98856.16
2023-10-11T08:29:57.411Z,98870.22
2023-10-11T08:32:31.595Z,98859.16
2023-10-11T08:34:58.312Z,98859.88
2023-10-11T08:37:24.863Z,98873.28
2023-10-11T08:39:55.557Z,98861.44
2023-10-11T08:42:23.869Z,98874.91
2023-10-11T08:44:52.389Z,98875.94
2023-10-11T08:47:20.643Z,98874.72
2023-10-11T08:49:49.930Z,98797.31
2023-10-11T08:52:30.376Z,98825.78
2023-10-11T08:55:00.024Z,98786.72
2023-10-11T08:57:27.454Z,98818.72
2023-10-11T08:59:58.124Z,98843.53
2023-10-11T09:02:28.139Z,98850.94
2023-10-11T09:05:08.122Z,98814.50
2023-10-11T09:07:40.832Z,98806.97
2023-10-11T09:10:28.306Z,98761.81
2023-10-11T09:12:58.766Z,98759.38
2023-10-11T09:15:34.350Z,98736.59
2023-10-11T09:18:21.563Z,98756.50
2023-10-11T09:20:57.312Z,98740.59
2023-10-11T09:23:36.105Z,98744.88
2023-10-11T09:26:04.308Z,98722.41
2023-10-11T09:28:34.846Z,98747.56
2023-10-11T09:31:25.333Z,98785.06
2023-10-11T09:33:54.358Z,98790.75
2023-10-11T09:36:23.735Z,98778.75
2023-10-11T09:38:56.218Z,98761.28
2023-10-11T09:41:39.878Z,98810.56
2023-10-11T09:44:08.212Z,98837.25
2023-10-11T09:46:35.868Z,98861.56
2023-10-11T09:49:06.354Z,98856.78
2023-10-11T09:51:33.124Z,98844.13
2023-10-11T09:54:06.990Z,98851.56
2023-10-11T09:56:51.339Z,98859.25
2023-10-11T09:59:52.110Z,98869.25
2023-10-11T10:02:34.115Z,98890.22
2023-10-11T10:05:05.930Z,98917.69
2023-10-11T10:07:44.195Z,98923.91
2023-10-11T10:10:13.191Z,98912.31
2023-10-11T10:12:43.921Z,98905.88
2023-10-11T10:15:15.621Z,98901.31
2023-10-11T10:18:09.034Z,98890.47
2023-10-11T10:20:42.829Z,98912.50
2023-10-11T10:23:15.572Z,98916.41
2023-10-11T10:25:47.425Z,98910.28
2023-10-11T10:28:37.247Z,98935.03
2023-10-11T10:31:18.268Z,98931.66
2023-10-11T10:33:51.128Z,98920.97
2023-10-11T10:36:21.894Z,98934.66
2023-10-11T10:39:10.032Z,98934.47
2023-10-11T10:41:38.588Z,98931.56
2023-10-11T10:44:07.778Z,98907.38
2023-10-11T10:46:53.941Z,98909.56
2023-10-11T10:49:44.130Z,98905.06
2023-10-11T10:52:20.463Z,98911.25
2023-10-11T10:55:04.120Z,98922.69
2023-10-11T10:57:38.234Z,98899.72
2023-10-11T11:00:21.892Z,98896.19
2023-10-11T11:02:49.300Z,98914.59
2023-10-11T11:05:17.257Z,98906.03
2023-10-11T11:07:52.985Z,98898.22
2023-10-11T11:10:22.884Z,98919.91
2023-10-11T11:12:52.859Z,98912.09
2023-10-11T11:15:22.229Z,98910.50
2023-10-11T11:17:51.568Z,98911.81
2023-10-11T11:20:24.990Z,98900.13
2023-10-11T11:22:53.839Z,98915.81
2023-10-11T11:25:26.343Z,98898.63
2023-10-11T11:28:06.558Z,98905.06
2023-10-11T11:30:37.301Z,98900.19
2023-10-11T11:33:16.029Z,98887.47
2023-10-11T11:35:45.234Z,98877.16
2023-10-11T11:38:22.384Z,98890.75
2023-10-11T11:41:03.124Z,98867.06
2023-10-11T11:43:34.982Z,98866.81
2023-10-11T11:46:04.589Z,98867.22
2023-10-11T11:48:42.229Z,98867.03
2023-10-11T11:51:15.543Z,98852.78
2023-10-11T11:53:44.606Z,98852.41
2023-10-11T11:56:14.125Z,98873.53
2023-10-11T11:58:48.563Z,98859.69
2023-10-11T12:01:19.138Z,98856.84
2023-10-11T12:03:55.552Z,98828.25
2023-10-11T12:06:23.104Z,98856.19
2023-10-11T12:09:01.857Z,98850.88
2023-10-11T12:11:31.080Z,98862.97
2023-10-11T12:13:59.471Z,98856.22
2023-10-11T12:16:26.920Z,98845.53
2023-10-11T12:19:03.023Z,98832.66
2023-10-11T12:21:30.554Z,98850.00
2023-10-11T12:23:57.946Z,98839.25
2023-10-11T12:26:28.494Z,98840.25
2023-10-11T12:28:55.337Z,98848.31
2023-10-11T12:31:21.966Z,98837.78
2023-10-11T12:33:48.929Z,98848.91
2023-10-11T12:36:21.249Z,98820.28
2023-10-11T12:38:50.115Z,98827.25
2023-10-11T12:41:17.358Z,98824.13
2023-10-11T12:43:46.786Z,98799.47
2023-10-11T12:46:16.325Z,98820.38
2023-10-11T12:48:45.284Z,98827.44
2023-10-11T12:51:12.019Z,98816.88
2023-10-11T12:53:38.594Z,98820.50
2023-10-11T12:56:05.773Z,98833.84
2023-10-11T12:58:40.629Z,98821.44
2023-10-11T13:01:13.099Z,98827.03
2023-10-11T13:03:40.730Z,98823.59
2023-10-11T13:06:11.745Z,98840.56
2023-10-11T13:08:39.260Z,98824.47
2023-10-11T13:11:14.148Z,98812.88
2023-10-11T13:13:45.131Z,98790.53
2023-10-11T13:16:23.688Z,98806.72
2023-10-11T13:18:50.281Z,98799.28
2023-10-11T13:21:18.120Z,98802.34
2023-10-11T13:23:45.277Z,98793.03
2023-10-11T13:26:19.714Z,98822.72
2023-10-11T13:28:54.412Z,98800.50
2023-10-11T13:31:21.308Z,98794.56
2023-10-11T13:33:47.936Z,98796.03
2023-10-11T13:36:15.350Z,98784.88
2023-10-11T13:38:46.387Z,98787.78
2023-10-11T13:41:14.074Z,98785.84
2023-10-11T13:43:41.377Z,98793.97
2023-10-11T13:46:08.619Z,98779.16
2023-10-11T13:48:39.155Z,98781.53
2023-10-11T13:51:08.547Z,98777.78
2023-10-11T13:53:42.629Z,98765.16
2023-10-11T13:56:17.612Z,98755.06
2023-10-11T13:58:48.148Z,98761.13
2023-10-11T14:01:25.688Z,98755.22
2023-10-11T14:03:58.268Z,98765.97
2023-10-11T14:06:43.767Z,98775.97
2023-10-11T14:09:18.162Z,98756.34
2023-10-11T14:11:48.419Z,98749.97
2023-10-11T14:14:23.750Z,98747.59
2023-10-11T14:16:50.841Z,98736.84
2023-10-11T14:19:18.374Z,98731.38
2023-10-11T14:21:49.013Z,98731.28
2023-10-11T14:24:20.152Z,98732.13
2023-10-11T14:26:47.823Z,98726.25
2023-10-11T14:29:15.710Z,98724.69
2023-10-11T14:31:43.575Z,98710.84
2023-10-11T14:34:11.777Z,98707.09
2023-10-11T14:36:40.927Z,98702.84
2023-10-11T14:39:19.129Z,98706.41
2023-10-11T14:41:47.570Z,98695.44
2023-10-11T14:44:17.228Z,98694.28
2023-10-11T14:46:46.091Z,98690.13
2023-10-11T14:49:14.007Z,98684.97
2023-10-11T14:51:41.344Z,98682.75
2023-10-11T14:54:08.243Z,98679.94
2023-10-11T14:56:35.761Z,98672.72
2023-10-11T14:59:02.695Z,98653.59
2023-10-11T15:01:29.257Z,98650.78
2023-10-11T15:04:01.751Z,98664.06
2023-10-11T15:06:28.518Z,98656.56
2023-10-11T15:08:55.881Z,98654.75
2023-10-11T15:11:25.300Z,98658.59
2023-10-11T15:13:51.810Z,98643.34
2023-10-11T15:16:20.436Z,98646.28
2023-10-11T15:18:47.025Z,98628.75
2023-10-11T15:21:17.237Z,98643.41
2023-10-11T15:23:45.680Z,98641.91
2023-10-11T15:26:13.606Z,98633.31
2023-10-11T15:28:42.092Z,98631.28
2023-10-11T15:31:09.007Z,98623.69
2023-10-11T15:33:39.688Z,98620.50
2023-10-11T15:36:08.480Z,98629.00
2023-10-11T15:38:37.922Z,98618.75
2023-10-11T15:41:05.925Z,98624.38
2023-10-11T15:43:37.282Z,98621.88
2023-10-11T15:46:05.031Z,98602.94
2023-10-11T15:48:32.523Z,98608.13
2023-10-11T15:51:16.730Z,98608.72
2023-10-11T15:53:43.742Z,98602.22
2023-10-11T15:56:15.042Z,98604.41
2023-10-11T15:58:42.253Z,98595.13
2023-10-11T16:01:09.298Z,98584.63
2023-10-11T16:03:44.693Z,98586.91
2023-10-11T16:06:12.296Z,98575.31
2023-10-11T16:08:40.137Z,98581.03
2023-10-11T16:11:11.244Z,98571.91
2023-10-11T16:13:38.631Z,98565.16
2023-10-11T16:16:06.363Z,98568.47
2023-10-11T16:18:34.246Z,98557.38
2023-10-11T16:21:04.695Z,98552.31
2023-10-11T16:23:33.777Z,98541.59
2023-10-11T16:26:02.221Z,98543.28
2023-10-11T16:28:30.424Z,98542.50
2023-10-11T16:31:00.085Z,98528.06
2023-10-11T16:33:32.733Z,98524.78
2023-10-11T16:36:04.600Z,98528.53
2023-10-11T16:38:36.016Z,98525.66
2023-10-11T16:41:05.749Z,98533.97
2023-10-11T16:43:33.785Z,98512.50
2023-10-11T16:46:00.692Z,98523.25
2023-10-11T16:48:30.126Z,98526.59
2023-10-11T16:50:59.516Z,98516.25
2023-10-11T16:53:37.925Z,98524.53
2023-10-11T16:56:14.006Z,98504.31
2023-10-11T16:58:42.571Z,98509.91
2023-10-11T17:01:09.838Z,98509.56
2023-10-11T17:03:36.518Z,98501.09
2023-10-11T17:06:06.706Z,98514.72
2023-10-11T17:08:44.208Z,98501.63
2023-10-11T17:11:15.403Z,98493.69
2023-10-11T17:13:42.370Z,98492.88
2023-10-11T17:16:09.296Z,98495.41
2023-10-11T17:18:36.162Z,98496.16
2023-10-11T17:21:05.280Z,98481.78
2023-10-11T17:23:34.462Z,98474.75
2023-10-11T17:26:15.587Z,98491.50
2023-10-11T17:28:44.062Z,98483.28
2023-10-11T17:31:13.347Z,98476.09
2023-10-11T17:33:44.130Z,98478.94
2023-10-11T17:36:11.482Z,98472.78
2023-10-11T17:38:43.022Z,98482.84
2023-10-11T17:41:14.503Z,98473.56
2023-10-11T17:43:44.204Z,98482.09
2023-10-11T17:46:10.870Z,98480.50
2023-10-11T17:48:38.739Z,98474.88
2023-10-11T17:51:09.199Z,98467.88
2023-10-11T17:53:43.155Z,98474.56
2023-10-11T17:56:16.838Z,98472.16
2023-10-11T17:58:49.197Z,98481.16
2023-10-11T18:01:17.647Z,98468.88
2023-10-11T18:03:44.508Z,98474.25
2023-10-11T18:06:11.077Z,98483.75
2023-10-11T18:08:37.691Z,98478.00
2023-10-11T18:11:06.430Z,98478.22
2023-10-11T18:13:34.471Z,98478.84
2023-10-11T18:16:00.924Z,98478.66
2023-10-11T18:18:28.012Z,98496.16
2023-10-11T18:20:58.668Z,98484.25
2023-10-11T18:23:25.217Z,98504.03
2023-10-11T18:25:52.776Z,98498.84
2023-10-11T18:28:19.309Z,98504.84
2023-10-11T18:30:45.819Z,98511.38
2023-10-11T18:33:12.445Z,98517.94
2023-10-11T18:35:41.722Z,98517.19
2023-10-11T18:38:08.441Z,98501.59
2023-10-11T18:40:35.790Z,98505.00
2023-10-11T18:43:03.632Z,98512.38
2023-10-11T18:45:32.421Z,98508.66
2023-10-11T18:48:02.035Z,98508.81
2023-10-11T18:50:28.515Z,98529.44
2023-10-11T18:52:55.704Z,98518.50
2023-10-11T18:55:23.625Z,98511.16
2023-10-11T18:57:52.588Z,98511.50
2023-10-11T19:00:25.620Z,98509.41
2023-10-11T19:02:53.670Z,98507.00
2023-10-11T19:05:23.394Z,98516.25
2023-10-11T19:07:52.040Z,98517.19
2023-10-11T19:10:20.085Z,98515.19
2023-10-11T19:12:49.049Z,98522.59
2023-10-11T19:15:18.346Z,98516.41
2023-10-11T19:17:50.409Z,98518.81
2023-10-11T19:20:18.961Z,98530.69
2023-10-11T19:22:49.018Z,98541.03
2023-10-11T19:25:17.655Z,98536.06
2023-10-11T19:27:49.127Z,98524.16
2023-10-11T19:30:22.891Z,98508.97
2023-10-11T19:32:51.175Z,98503.59
2023-10-11T19:35:20.276Z,98506.88
2023-10-11T19:37:46.975Z,98509.13
2023-10-11T19:40:26.489Z,98510.13
2023-10-11T19:42:54.520Z,98516.31
2023-10-11T19:45:24.152Z,98504.34
2023-10-11T19:47:51.805Z,98503.31
2023-10-11T19:50:19.119Z,98506.44
2023-10-11T19:52:47.501Z,98501.50
2023-10-11T19:55:14.594Z,98495.34
2023-10-11T19:57:45.475Z,98502.63
2023-10-11T20:00:14.836Z,98501.06
2023-10-11T20:02:41.451Z,98503.19
2023-10-11T20:05:08.550Z,98503.59
2023-10-11T20:07:38.097Z,98493.13
2023-10-11T20:10:04.750Z,98493.72
2023-10-11T20:12:31.269Z,98495.00
2023-10-11T20:14:58.144Z,98501.59
2023-10-11T20:17:24.790Z,98486.28
2023-10-11T20:19:51.427Z,98483.03
2023-10-11T20:22:17.892Z,98502.75
2023-10-11T20:24:44.485Z,98491.59
2023-10-11T20:27:14.097Z,98494.97
2023-10-11T20:29:41.755Z,98490.84
2023-10-11T20:32:08.450Z,98492.94
2023-10-11T20:34:35.170Z,98477.25
2023-10-11T20:37:02.394Z,98476.16
2023-10-11T20:39:31.165Z,98475.69
2023-10-11T20:41:58.343Z,98475.38
2023-10-11T20:44:26.400Z,98451.16
2023-10-11T20:46:53.693Z,98459.47
2023-10-11T20:49:20.394Z,98453.63
2023-10-11T20:51:46.966Z,98453.25
2023-10-11T20:54:17.084Z,98438.00
2023-10-11T20:56:47.573Z,98431.88
2023-10-11T20:59:19.391Z,98426.81
2023-10-11T21:01:46.889Z,98442.13
2023-10-11T21:04:13.940Z,98429.06
2023-10-11T21:06:42.719Z,98411.09
2023-10-11T21:09:10.002Z,98393.78
2023-10-11T21:11:37.162Z,98405.72
2023-10-11T21:14:04.330Z,98384.22
2023-10-11T21:16:35.143Z,98383.47
2023-10-11T21:19:02.115Z,98375.94
2023-10-11T21:21:29.481Z,98365.22
2023-10-11T21:23:56.691Z,98357.25
2023-10-11T21:26:23.839Z,98343.72
2023-10-11T21:28:55.232Z,98344.09
2023-10-11T21:31:22.524Z,98337.31
2023-10-11T21:33:51.370Z,98328.63
2023-10-11T21:36:18.140Z,98324.31
2023-10-11T21:38:51.441Z,98327.56
2023-10-11T21:41:22.861Z,98314.56
2023-10-11T21:43:50.170Z,98311.53
2023-10-11T21:46:17.091Z,98311.88
2023-10-11T21:48:44.163Z,98308.22
2023-10-11T21:51:13.934Z,98298.72
2023-10-11T21:53:42.786Z,98294.25
2023-10-11T21:56:10.548Z,98278.56
2023-10-11T21:58:39.414Z,98289.63
2023-10-11T22:01:08.291Z,98289.63
2023-10-11T22:03:36.316Z,98274.47
2023-10-11T22:06:06.465Z,98261.03
2023-10-11T22:08:36.904Z,98252.13
2023-10-11T22:11:05.398Z,98238.38
2023-10-11T22:13:33.913Z,98238.53
2023-10-11T22:16:00.718Z,98236.06
2023-10-11T22:18:30.883Z,98230.81
2023-10-11T22:21:00.383Z,98257.56
2023-10-11T22:23:32.206Z,98246.91
2023-10-11T22:25:58.930Z,98243.81
2023-10-11T22:28:26.076Z,98249.56
2023-10-11T22:30:52.848Z,98237.41
2023-10-11T22:33:23.771Z,98237.41
2023-10-11T22:35:52.626Z,98241.38
2023-10-11T22:38:22.367Z,98228.38
2023-10-11T22:40:52.598Z,98228.28
2023-10-11T22:43:29.709Z,98234.94
2023-10-11T22:45:58.671Z,98229.94
2023-10-11T22:48:26.076Z,98229.19
2023-10-11T22:50:53.255Z,98232.38
2023-10-11T22:53:24.216Z,98236.19
2023-10-11T22:55:51.481Z,98210.59
2023-10-11T22:58:20.361Z,98213.13
2023-10-11T23:00:49.366Z,98211.94
2023-10-11T23:03:16.592Z,98190.88
2023-10-11T23:05:43.239Z,98209.75
2023-10-11T23:08:10.533Z,98193.19
2023-10-11T23:10:44.033Z,98209.03
2023-10-11T23:13:10.896Z,98217.06
2023-10-11T23:15:54.318Z,98212.59
2023-10-11T23:18:27.651Z,98213.56
2023-10-11T23:21:02.367Z,98215.25
2023-10-11T23:23:31.090Z,98213.22
2023-10-11T23:26:06.044Z,98220.44
2023-10-11T23:28:37.577Z,98217.50
2023-10-11T23:31:10.108Z,98213.84
2023-10-11T23:33:38.155Z,98214.91
2023-10-11T23:36:12.720Z,98219.81
2023-10-11T23:38:48.251Z,98220.47
2023-10-11T23:41:14.901Z,98211.84
2023-10-11T23:43:45.240Z,98189.03
2023-10-11T23:46:16.407Z,98202.75
2023-10-11T23:48:45.858Z,98187.91
2023-10-11T23:51:19.869Z,98198.16
2023-10-11T23:53:46.893Z,98212.09
2023-10-11T23:56:20.355Z,98204.16
2023-10-11T23:58:57.700Z,98197.56
